sensor_id;sensor_type;location;lat;lon;timestamp;P1;durP1;ratioP1;P2;durP2;ratioP2
34673;SDS011;20879;55.668;37.858;2023-06-26T00:02:13;32.20;;;19.88;;
34673;SDS011;20879;55.668;37.858;2023-06-26T00:07:12;37.67;;;19.98;;
34673;SDS011;20879;55.668;37.858;2023-06-26T00:09:42;35.47;;;20.25;;
34673;SDS011;20879;55.668;37.858;2023-06-26T00:12:11;38.90;;;20.13;;
34673;SDS011;20879;55.668;37.858;2023-06-26T00:14:41;33.72;;;19.40;;
34673;SDS011;20879;55.668;37.858;2023-06-26T00:17:13;32.05;;;19.13;;
34673;SDS011;20879;55.668;37.858;2023-06-26T00:19:42;31.35;;;18.83;;
34673;SDS011;20879;55.668;37.858;2023-06-26T00:22:12;40.08;;;20.30;;
34673;SDS011;20879;55.668;37.858;2023-06-26T00:24:41;32.35;;;19.92;;
34673;SDS011;20879;55.668;37.858;2023-06-26T00:27:11;37.80;;;20.52;;
34673;SDS011;20879;55.668;37.858;2023-06-26T00:29:50;28.80;;;20.20;;
34673;SDS011;20879;55.668;37.858;2023-06-26T00:32:21;32.08;;;19.58;;
34673;SDS011;20879;55.668;37.858;2023-06-26T00:34:56;29.30;;;20.35;;
34673;SDS011;20879;55.668;37.858;2023-06-26T00:37:31;33.97;;;23.67;;
34673;SDS011;20879;55.668;37.858;2023-06-26T00:40:01;31.30;;;22.27;;
34673;SDS011;20879;55.668;37.858;2023-06-26T00:42:32;33.90;;;21.58;;
34673;SDS011;20879;55.668;37.858;2023-06-26T00:45:02;40.25;;;22.70;;
34673;SDS011;20879;55.668;37.858;2023-06-26T00:47:34;33.35;;;21.08;;
34673;SDS011;20879;55.668;37.858;2023-06-26T00:50:05;29.17;;;21.17;;
34673;SDS011;20879;55.668;37.858;2023-06-26T00:52:35;33.15;;;21.75;;
34673;SDS011;20879;55.668;37.858;2023-06-26T00:55:06;36.78;;;21.60;;
34673;SDS011;20879;55.668;37.858;2023-06-26T00:57:37;37.20;;;23.60;;
34673;SDS011;20879;55.668;37.858;2023-06-26T01:00:07;34.67;;;21.98;;
34673;SDS011;20879;55.668;37.858;2023-06-26T01:02:39;31.17;;;22.13;;
34673;SDS011;20879;55.668;37.858;2023-06-26T01:05:09;37.58;;;21.13;;
34673;SDS011;20879;55.668;37.858;2023-06-26T01:07:40;34.70;;;20.42;;
34673;SDS011;20879;55.668;37.858;2023-06-26T01:10:09;29.77;;;21.13;;
34673;SDS011;20879;55.668;37.858;2023-06-26T01:12:38;34.47;;;20.40;;
34673;SDS011;20879;55.668;37.858;2023-06-26T01:15:13;36.70;;;22.45;;
34673;SDS011;20879;55.668;37.858;2023-06-26T01:17:44;32.60;;;21.98;;
34673;SDS011;20879;55.668;37.858;2023-06-26T01:20:14;29.50;;;21.33;;
34673;SDS011;20879;55.668;37.858;2023-06-26T01:22:51;33.20;;;21.75;;
34673;SDS011;20879;55.668;37.858;2023-06-26T01:25:29;29.88;;;21.35;;
34673;SDS011;20879;55.668;37.858;2023-06-26T01:28:07;39.67;;;24.65;;
34673;SDS011;20879;55.668;37.858;2023-06-26T01:30:40;35.10;;;21.88;;
34673;SDS011;20879;55.668;37.858;2023-06-26T01:33:16;34.25;;;23.23;;
34673;SDS011;20879;55.668;37.858;2023-06-26T01:35:46;36.25;;;23.65;;
34673;SDS011;20879;55.668;37.858;2023-06-26T01:38:17;34.55;;;24.70;;
34673;SDS011;20879;55.668;37.858;2023-06-26T01:40:47;33.40;;;23.08;;
34673;SDS011;20879;55.668;37.858;2023-06-26T01:43:24;32.35;;;23.00;;
34673;SDS011;20879;55.668;37.858;2023-06-26T01:45:59;32.72;;;22.90;;
34673;SDS011;20879;55.668;37.858;2023-06-26T01:48:33;31.27;;;21.55;;
34673;SDS011;20879;55.668;37.858;2023-06-26T01:53:46;32.30;;;20.30;;
34673;SDS011;20879;55.668;37.858;2023-06-26T01:56:26;30.55;;;21.40;;
34673;SDS011;20879;55.668;37.858;2023-06-26T02:01:32;26.58;;;19.63;;
34673;SDS011;20879;55.668;37.858;2023-06-26T02:04:02;29.35;;;20.58;;
34673;SDS011;20879;55.668;37.858;2023-06-26T02:06:32;31.17;;;22.23;;
34673;SDS011;20879;55.668;37.858;2023-06-26T02:09:01;36.83;;;23.88;;
34673;SDS011;20879;55.668;37.858;2023-06-26T02:11:31;28.70;;;21.48;;
34673;SDS011;20879;55.668;37.858;2023-06-26T02:14:02;31.63;;;19.90;;
34673;SDS011;20879;55.668;37.858;2023-06-26T02:19:00;27.70;;;18.30;;
34673;SDS011;20879;55.668;37.858;2023-06-26T02:21:50;32.58;;;21.00;;
34673;SDS011;20879;55.668;37.858;2023-06-26T02:24:19;30.75;;;20.50;;
34673;SDS011;20879;55.668;37.858;2023-06-26T02:26:48;28.90;;;20.73;;
34673;SDS011;20879;55.668;37.858;2023-06-26T02:29:20;26.45;;;19.38;;
34673;SDS011;20879;55.668;37.858;2023-06-26T02:31:55;26.40;;;18.85;;
34673;SDS011;20879;55.668;37.858;2023-06-26T02:34:25;26.88;;;19.35;;
34673;SDS011;20879;55.668;37.858;2023-06-26T02:36:54;31.77;;;19.80;;
34673;SDS011;20879;55.668;37.858;2023-06-26T02:39:25;29.02;;;19.33;;
34673;SDS011;20879;55.668;37.858;2023-06-26T02:41:59;29.58;;;20.63;;
34673;SDS011;20879;55.668;37.858;2023-06-26T02:44:30;25.40;;;19.50;;
34673;SDS011;20879;55.668;37.858;2023-06-26T02:47:00;28.77;;;20.42;;
34673;SDS011;20879;55.668;37.858;2023-06-26T02:49:31;27.38;;;19.67;;
34673;SDS011;20879;55.668;37.858;2023-06-26T02:52:06;27.08;;;18.90;;
34673;SDS011;20879;55.668;37.858;2023-06-26T02:54:35;24.80;;;17.17;;
34673;SDS011;20879;55.668;37.858;2023-06-26T02:59:43;21.00;;;14.45;;
34673;SDS011;20879;55.668;37.858;2023-06-26T03:02:13;22.35;;;15.80;;
34673;SDS011;20879;55.668;37.858;2023-06-26T03:04:45;24.15;;;16.77;;
34673;SDS011;20879;55.668;37.858;2023-06-26T03:07:14;25.45;;;17.17;;
34673;SDS011;20879;55.668;37.858;2023-06-26T03:09:44;21.88;;;17.38;;
34673;SDS011;20879;55.668;37.858;2023-06-26T03:12:13;21.05;;;17.38;;
34673;SDS011;20879;55.668;37.858;2023-06-26T03:14:45;26.20;;;17.60;;
34673;SDS011;20879;55.668;37.858;2023-06-26T03:17:14;23.25;;;18.15;;
34673;SDS011;20879;55.668;37.858;2023-06-26T03:19:47;24.58;;;16.83;;
34673;SDS011;20879;55.668;37.858;2023-06-26T03:22:22;23.88;;;16.65;;
34673;SDS011;20879;55.668;37.858;2023-06-26T03:24:51;23.25;;;15.60;;
34673;SDS011;20879;55.668;37.858;2023-06-26T03:27:22;24.30;;;17.02;;
34673;SDS011;20879;55.668;37.858;2023-06-26T03:29:54;20.35;;;15.55;;
34673;SDS011;20879;55.668;37.858;2023-06-26T03:32:23;24.52;;;16.35;;
34673;SDS011;20879;55.668;37.858;2023-06-26T03:34:59;24.75;;;17.35;;
34673;SDS011;20879;55.668;37.858;2023-06-26T03:37:37;21.15;;;15.55;;
34673;SDS011;20879;55.668;37.858;2023-06-26T03:40:08;25.15;;;17.35;;
34673;SDS011;20879;55.668;37.858;2023-06-26T03:42:38;21.48;;;15.77;;
34673;SDS011;20879;55.668;37.858;2023-06-26T03:45:10;29.48;;;17.15;;
34673;SDS011;20879;55.668;37.858;2023-06-26T03:47:44;21.63;;;15.65;;
34673;SDS011;20879;55.668;37.858;2023-06-26T03:50:16;19.38;;;15.05;;
34673;SDS011;20879;55.668;37.858;2023-06-26T03:52:50;21.83;;;15.50;;
34673;SDS011;20879;55.668;37.858;2023-06-26T03:55:21;20.67;;;15.40;;
34673;SDS011;20879;55.668;37.858;2023-06-26T03:57:56;23.95;;;15.07;;
34673;SDS011;20879;55.668;37.858;2023-06-26T04:00:28;21.55;;;14.55;;
34673;SDS011;20879;55.668;37.858;2023-06-26T04:05:26;17.55;;;13.70;;
34673;SDS011;20879;55.668;37.858;2023-06-26T04:07:56;20.52;;;14.90;;
34673;SDS011;20879;55.668;37.858;2023-06-26T04:10:26;22.63;;;14.15;;
34673;SDS011;20879;55.668;37.858;2023-06-26T04:12:55;23.08;;;14.55;;
34673;SDS011;20879;55.668;37.858;2023-06-26T04:15:24;20.27;;;15.00;;
34673;SDS011;20879;55.668;37.858;2023-06-26T04:17:55;26.65;;;15.70;;
34673;SDS011;20879;55.668;37.858;2023-06-26T04:20:25;22.00;;;15.20;;
34673;SDS011;20879;55.668;37.858;2023-06-26T04:22:54;28.33;;;19.17;;
34673;SDS011;20879;55.668;37.858;2023-06-26T04:25:24;26.95;;;17.90;;
34673;SDS011;20879;55.668;37.858;2023-06-26T04:27:55;26.70;;;16.88;;
34673;SDS011;20879;55.668;37.858;2023-06-26T04:30:25;23.60;;;16.08;;
34673;SDS011;20879;55.668;37.858;2023-06-26T04:32:57;23.55;;;15.50;;
34673;SDS011;20879;55.668;37.858;2023-06-26T04:35:33;20.58;;;13.18;;
34673;SDS011;20879;55.668;37.858;2023-06-26T04:38:03;22.75;;;13.25;;
34673;SDS011;20879;55.668;37.858;2023-06-26T04:40:32;18.70;;;12.43;;
34673;SDS011;20879;55.668;37.858;2023-06-26T04:43:03;19.10;;;12.73;;
34673;SDS011;20879;55.668;37.858;2023-06-26T04:45:32;24.05;;;13.13;;
34673;SDS011;20879;55.668;37.858;2023-06-26T04:50:45;20.00;;;11.52;;
34673;SDS011;20879;55.668;37.858;2023-06-26T04:53:20;19.83;;;12.57;;
34673;SDS011;20879;55.668;37.858;2023-06-26T04:55:50;16.38;;;11.15;;
34673;SDS011;20879;55.668;37.858;2023-06-26T04:58:20;13.25;;;10.20;;
34673;SDS011;20879;55.668;37.858;2023-06-26T05:00:49;17.25;;;10.73;;
34673;SDS011;20879;55.668;37.858;2023-06-26T05:03:21;15.57;;;10.48;;
34673;SDS011;20879;55.668;37.858;2023-06-26T05:05:51;19.85;;;10.50;;
34673;SDS011;20879;55.668;37.858;2023-06-26T05:11:01;16.13;;;9.60;;
34673;SDS011;20879;55.668;37.858;2023-06-26T05:13:30;15.40;;;11.15;;
34673;SDS011;20879;55.668;37.858;2023-06-26T05:16:00;22.75;;;11.63;;
34673;SDS011;20879;55.668;37.858;2023-06-26T05:18:32;18.75;;;11.30;;
34673;SDS011;20879;55.668;37.858;2023-06-26T05:21:06;19.05;;;11.40;;
34673;SDS011;20879;55.668;37.858;2023-06-26T05:23:36;19.52;;;11.32;;
34673;SDS011;20879;55.668;37.858;2023-06-26T05:26:06;19.73;;;12.10;;
34673;SDS011;20879;55.668;37.858;2023-06-26T05:31:15;18.17;;;11.65;;
34673;SDS011;20879;55.668;37.858;2023-06-26T05:33:52;15.48;;;10.55;;
34673;SDS011;20879;55.668;37.858;2023-06-26T05:36:35;21.90;;;11.48;;
34673;SDS011;20879;55.668;37.858;2023-06-26T05:39:05;13.32;;;9.55;;
34673;SDS011;20879;55.668;37.858;2023-06-26T05:41:35;14.73;;;8.90;;
34673;SDS011;20879;55.668;37.858;2023-06-26T05:44:24;13.40;;;9.20;;
34673;SDS011;20879;55.668;37.858;2023-06-26T05:46:59;13.27;;;9.85;;
34673;SDS011;20879;55.668;37.858;2023-06-26T05:49:31;14.98;;;9.75;;
34673;SDS011;20879;55.668;37.858;2023-06-26T05:52:01;17.60;;;9.50;;
34673;SDS011;20879;55.668;37.858;2023-06-26T05:54:31;16.70;;;9.48;;
34673;SDS011;20879;55.668;37.858;2023-06-26T05:57:06;18.75;;;10.18;;
34673;SDS011;20879;55.668;37.858;2023-06-26T05:59:47;16.73;;;9.48;;
34673;SDS011;20879;55.668;37.858;2023-06-26T06:02:18;16.80;;;9.40;;
34673;SDS011;20879;55.668;37.858;2023-06-26T06:04:49;14.15;;;8.68;;
34673;SDS011;20879;55.668;37.858;2023-06-26T06:07:37;17.60;;;9.77;;
34673;SDS011;20879;55.668;37.858;2023-06-26T06:10:07;15.30;;;9.30;;
34673;SDS011;20879;55.668;37.858;2023-06-26T06:12:49;14.07;;;9.55;;
34673;SDS011;20879;55.668;37.858;2023-06-26T06:15:21;12.30;;;7.57;;
34673;SDS011;20879;55.668;37.858;2023-06-26T06:17:50;13.23;;;8.52;;
34673;SDS011;20879;55.668;37.858;2023-06-26T06:20:22;14.90;;;9.10;;
34673;SDS011;20879;55.668;37.858;2023-06-26T06:22:56;13.48;;;8.45;;
34673;SDS011;20879;55.668;37.858;2023-06-26T06:25:26;12.30;;;8.10;;
34673;SDS011;20879;55.668;37.858;2023-06-26T06:28:00;11.48;;;7.65;;
34673;SDS011;20879;55.668;37.858;2023-06-26T06:30:43;11.98;;;7.78;;
34673;SDS011;20879;55.668;37.858;2023-06-26T06:33:14;15.25;;;8.07;;
34673;SDS011;20879;55.668;37.858;2023-06-26T06:38:42;9.30;;;6.47;;
34673;SDS011;20879;55.668;37.858;2023-06-26T06:41:12;12.15;;;7.65;;
34673;SDS011;20879;55.668;37.858;2023-06-26T06:43:47;8.27;;;6.70;;
34673;SDS011;20879;55.668;37.858;2023-06-26T06:46:17;9.98;;;6.18;;
34673;SDS011;20879;55.668;37.858;2023-06-26T06:48:47;9.85;;;6.80;;
34673;SDS011;20879;55.668;37.858;2023-06-26T06:51:23;7.70;;;5.75;;
34673;SDS011;20879;55.668;37.858;2023-06-26T06:53:52;8.50;;;6.38;;
34673;SDS011;20879;55.668;37.858;2023-06-26T06:56:27;7.63;;;5.82;;
34673;SDS011;20879;55.668;37.858;2023-06-26T06:58:56;8.63;;;5.13;;
34673;SDS011;20879;55.668;37.858;2023-06-26T07:01:58;9.63;;;5.68;;
34673;SDS011;20879;55.668;37.858;2023-06-26T07:04:27;8.82;;;6.10;;
34673;SDS011;20879;55.668;37.858;2023-06-26T07:07:08;10.85;;;6.05;;
34673;SDS011;20879;55.668;37.858;2023-06-26T07:12:07;9.50;;;6.95;;
34673;SDS011;20879;55.668;37.858;2023-06-26T07:14:37;9.00;;;6.18;;
34673;SDS011;20879;55.668;37.858;2023-06-26T07:17:06;6.32;;;5.20;;
34673;SDS011;20879;55.668;37.858;2023-06-26T07:19:35;7.57;;;4.93;;
34673;SDS011;20879;55.668;37.858;2023-06-26T07:22:06;9.15;;;5.55;;
34673;SDS011;20879;55.668;37.858;2023-06-26T07:24:38;9.20;;;5.78;;
34673;SDS011;20879;55.668;37.858;2023-06-26T07:27:07;6.05;;;5.38;;
34673;SDS011;20879;55.668;37.858;2023-06-26T07:29:42;8.15;;;5.95;;
34673;SDS011;20879;55.668;37.858;2023-06-26T07:32:11;9.20;;;5.25;;
34673;SDS011;20879;55.668;37.858;2023-06-26T07:34:41;6.63;;;5.53;;
34673;SDS011;20879;55.668;37.858;2023-06-26T07:37:17;6.82;;;5.15;;
34673;SDS011;20879;55.668;37.858;2023-06-26T07:40:03;6.28;;;5.68;;
34673;SDS011;20879;55.668;37.858;2023-06-26T07:42:33;6.65;;;5.53;;
34673;SDS011;20879;55.668;37.858;2023-06-26T07:45:03;12.40;;;5.80;;
34673;SDS011;20879;55.668;37.858;2023-06-26T07:47:55;6.65;;;5.22;;
34673;SDS011;20879;55.668;37.858;2023-06-26T07:50:25;7.90;;;5.65;;
34673;SDS011;20879;55.668;37.858;2023-06-26T07:53:12;8.20;;;5.50;;
34673;SDS011;20879;55.668;37.858;2023-06-26T07:55:42;9.27;;;5.53;;
34673;SDS011;20879;55.668;37.858;2023-06-26T07:58:17;8.88;;;5.63;;
34673;SDS011;20879;55.668;37.858;2023-06-26T08:00:46;7.18;;;5.57;;
34673;SDS011;20879;55.668;37.858;2023-06-26T08:03:34;7.70;;;5.82;;
34673;SDS011;20879;55.668;37.858;2023-06-26T08:06:04;10.27;;;6.07;;
34673;SDS011;20879;55.668;37.858;2023-06-26T08:08:39;7.40;;;5.50;;
34673;SDS011;20879;55.668;37.858;2023-06-26T08:11:15;7.07;;;5.78;;
34673;SDS011;20879;55.668;37.858;2023-06-26T08:13:49;6.82;;;6.13;;
34673;SDS011;20879;55.668;37.858;2023-06-26T08:16:18;6.32;;;5.50;;
34673;SDS011;20879;55.668;37.858;2023-06-26T08:18:48;11.25;;;5.75;;
34673;SDS011;20879;55.668;37.858;2023-06-26T08:21:17;10.93;;;6.05;;
34673;SDS011;20879;55.668;37.858;2023-06-26T08:24:13;13.98;;;6.75;;
34673;SDS011;20879;55.668;37.858;2023-06-26T08:26:45;8.65;;;6.07;;
34673;SDS011;20879;55.668;37.858;2023-06-26T08:29:15;11.30;;;6.05;;
34673;SDS011;20879;55.668;37.858;2023-06-26T08:31:44;12.35;;;6.03;;
34673;SDS011;20879;55.668;37.858;2023-06-26T08:34:32;6.70;;;5.30;;
34673;SDS011;20879;55.668;37.858;2023-06-26T08:37:20;6.03;;;5.35;;
34673;SDS011;20879;55.668;37.858;2023-06-26T08:39:51;9.20;;;6.20;;
34673;SDS011;20879;55.668;37.858;2023-06-26T08:42:21;7.82;;;5.47;;
34673;SDS011;20879;55.668;37.858;2023-06-26T08:44:55;8.80;;;6.40;;
34673;SDS011;20879;55.668;37.858;2023-06-26T08:47:33;6.88;;;6.03;;
34673;SDS011;20879;55.668;37.858;2023-06-26T08:50:10;7.65;;;6.10;;
34673;SDS011;20879;55.668;37.858;2023-06-26T08:52:43;7.50;;;6.22;;
34673;SDS011;20879;55.668;37.858;2023-06-26T08:55:20;7.28;;;5.75;;
34673;SDS011;20879;55.668;37.858;2023-06-26T08:57:56;10.45;;;6.53;;
34673;SDS011;20879;55.668;37.858;2023-06-26T09:00:28;6.95;;;5.55;;
34673;SDS011;20879;55.668;37.858;2023-06-26T09:03:04;8.10;;;5.93;;
34673;SDS011;20879;55.668;37.858;2023-06-26T09:05:36;9.02;;;5.78;;
34673;SDS011;20879;55.668;37.858;2023-06-26T09:08:06;10.70;;;5.35;;
34673;SDS011;20879;55.668;37.858;2023-06-26T09:10:51;8.90;;;6.18;;
34673;SDS011;20879;55.668;37.858;2023-06-26T09:15:56;12.68;;;6.57;;
34673;SDS011;20879;55.668;37.858;2023-06-26T09:21:25;8.13;;;5.95;;
34673;SDS011;20879;55.668;37.858;2023-06-26T09:23:54;10.43;;;5.85;;
34673;SDS011;20879;55.668;37.858;2023-06-26T09:26:26;8.65;;;6.07;;
34673;SDS011;20879;55.668;37.858;2023-06-26T09:29:01;7.68;;;6.18;;
34673;SDS011;20879;55.668;37.858;2023-06-26T09:31:32;6.85;;;5.93;;
34673;SDS011;20879;55.668;37.858;2023-06-26T09:34:13;8.32;;;6.68;;
34673;SDS011;20879;55.668;37.858;2023-06-26T09:36:43;8.98;;;6.25;;
34673;SDS011;20879;55.668;37.858;2023-06-26T09:39:16;8.80;;;6.68;;
34673;SDS011;20879;55.668;37.858;2023-06-26T09:41:47;7.28;;;6.30;;
34673;SDS011;20879;55.668;37.858;2023-06-26T09:44:22;9.10;;;6.60;;
34673;SDS011;20879;55.668;37.858;2023-06-26T09:46:52;10.07;;;6.22;;
34673;SDS011;20879;55.668;37.858;2023-06-26T09:49:29;11.20;;;6.43;;
34673;SDS011;20879;55.668;37.858;2023-06-26T09:51:59;9.63;;;6.63;;
34673;SDS011;20879;55.668;37.858;2023-06-26T09:54:30;8.80;;;6.68;;
34673;SDS011;20879;55.668;37.858;2023-06-26T09:57:09;11.20;;;6.90;;
34673;SDS011;20879;55.668;37.858;2023-06-26T09:59:41;9.20;;;6.10;;
34673;SDS011;20879;55.668;37.858;2023-06-26T10:02:18;10.63;;;5.90;;
34673;SDS011;20879;55.668;37.858;2023-06-26T10:04:48;11.32;;;7.25;;
34673;SDS011;20879;55.668;37.858;2023-06-26T10:07:21;10.85;;;6.03;;
34673;SDS011;20879;55.668;37.858;2023-06-26T10:09:51;8.50;;;5.78;;
34673;SDS011;20879;55.668;37.858;2023-06-26T10:12:27;9.68;;;6.55;;
34673;SDS011;20879;55.668;37.858;2023-06-26T10:15:04;13.30;;;6.30;;
34673;SDS011;20879;55.668;37.858;2023-06-26T10:17:38;10.77;;;6.32;;
34673;SDS011;20879;55.668;37.858;2023-06-26T10:20:40;14.50;;;6.30;;
34673;SDS011;20879;55.668;37.858;2023-06-26T10:23:12;6.95;;;5.65;;
34673;SDS011;20879;55.668;37.858;2023-06-26T10:25:51;6.93;;;5.95;;
34673;SDS011;20879;55.668;37.858;2023-06-26T10:31:03;6.30;;;5.40;;
34673;SDS011;20879;55.668;37.858;2023-06-26T10:33:35;8.55;;;6.47;;
34673;SDS011;20879;55.668;37.858;2023-06-26T10:36:13;7.30;;;6.10;;
34673;SDS011;20879;55.668;37.858;2023-06-26T10:38:49;10.23;;;5.57;;
34673;SDS011;20879;55.668;37.858;2023-06-26T10:41:20;9.65;;;6.13;;
34673;SDS011;20879;55.668;37.858;2023-06-26T10:44:09;7.43;;;5.40;;
34673;SDS011;20879;55.668;37.858;2023-06-26T10:46:49;8.60;;;5.90;;
34673;SDS011;20879;55.668;37.858;2023-06-26T10:49:20;7.22;;;5.32;;
34673;SDS011;20879;55.668;37.858;2023-06-26T10:54:41;6.90;;;5.28;;
34673;SDS011;20879;55.668;37.858;2023-06-26T10:57:11;6.03;;;5.13;;
34673;SDS011;20879;55.668;37.858;2023-06-26T11:00:10;6.38;;;5.28;;
34673;SDS011;20879;55.668;37.858;2023-06-26T11:02:52;8.38;;;5.75;;
34673;SDS011;20879;55.668;37.858;2023-06-26T11:05:27;6.18;;;5.07;;
34673;SDS011;20879;55.668;37.858;2023-06-26T11:08:05;6.10;;;5.07;;
34673;SDS011;20879;55.668;37.858;2023-06-26T11:10:48;10.88;;;5.72;;
34673;SDS011;20879;55.668;37.858;2023-06-26T11:13:23;7.63;;;5.38;;
34673;SDS011;20879;55.668;37.858;2023-06-26T11:15:55;5.95;;;5.10;;
34673;SDS011;20879;55.668;37.858;2023-06-26T11:18:26;6.35;;;5.20;;
34673;SDS011;20879;55.668;37.858;2023-06-26T11:21:03;8.38;;;5.43;;
34673;SDS011;20879;55.668;37.858;2023-06-26T11:23:40;7.88;;;5.43;;
34673;SDS011;20879;55.668;37.858;2023-06-26T11:26:15;6.55;;;5.30;;
34673;SDS011;20879;55.668;37.858;2023-06-26T11:28:51;6.63;;;5.03;;
34673;SDS011;20879;55.668;37.858;2023-06-26T11:31:27;7.20;;;5.20;;
34673;SDS011;20879;55.668;37.858;2023-06-26T11:34:08;6.68;;;5.45;;
34673;SDS011;20879;55.668;37.858;2023-06-26T11:36:52;6.13;;;5.43;;
34673;SDS011;20879;55.668;37.858;2023-06-26T11:39:27;8.82;;;5.65;;
34673;SDS011;20879;55.668;37.858;2023-06-26T11:41:57;12.40;;;5.90;;
34673;SDS011;20879;55.668;37.858;2023-06-26T11:44:42;9.65;;;5.82;;
34673;SDS011;20879;55.668;37.858;2023-06-26T11:47:14;7.97;;;5.22;;
34673;SDS011;20879;55.668;37.858;2023-06-26T11:49:44;7.75;;;5.38;;
34673;SDS011;20879;55.668;37.858;2023-06-26T11:52:14;6.18;;;4.95;;
34673;SDS011;20879;55.668;37.858;2023-06-26T11:54:52;7.90;;;5.43;;
34673;SDS011;20879;55.668;37.858;2023-06-26T11:57:21;7.10;;;5.28;;
34673;SDS011;20879;55.668;37.858;2023-06-26T12:00:11;7.82;;;5.07;;
34673;SDS011;20879;55.668;37.858;2023-06-26T12:02:43;5.45;;;4.40;;
34673;SDS011;20879;55.668;37.858;2023-06-26T12:05:14;7.05;;;5.38;;
34673;SDS011;20879;55.668;37.858;2023-06-26T12:07:47;5.60;;;4.55;;
34673;SDS011;20879;55.668;37.858;2023-06-26T12:10:18;7.97;;;5.07;;
34673;SDS011;20879;55.668;37.858;2023-06-26T12:12:48;9.85;;;5.68;;
34673;SDS011;20879;55.668;37.858;2023-06-26T12:18:09;8.93;;;5.80;;
34673;SDS011;20879;55.668;37.858;2023-06-26T12:20:41;5.05;;;4.28;;
34673;SDS011;20879;55.668;37.858;2023-06-26T12:23:16;8.60;;;5.05;;
34673;SDS011;20879;55.668;37.858;2023-06-26T12:25:50;6.40;;;5.10;;
34673;SDS011;20879;55.668;37.858;2023-06-26T12:28:20;6.32;;;5.15;;
34673;SDS011;20879;55.668;37.858;2023-06-26T12:33:51;8.20;;;5.40;;
34673;SDS011;20879;55.668;37.858;2023-06-26T12:36:21;8.20;;;5.50;;
34673;SDS011;20879;55.668;37.858;2023-06-26T12:38:52;6.13;;;4.72;;
34673;SDS011;20879;55.668;37.858;2023-06-26T12:41:23;7.45;;;5.30;;
34673;SDS011;20879;55.668;37.858;2023-06-26T12:50:42;5.72;;;4.72;;
34673;SDS011;20879;55.668;37.858;2023-06-26T12:53:14;7.93;;;5.28;;
34673;SDS011;20879;55.668;37.858;2023-06-26T12:55:44;6.72;;;5.20;;
34673;SDS011;20879;55.668;37.858;2023-06-26T12:58:13;6.22;;;5.03;;
34673;SDS011;20879;55.668;37.858;2023-06-26T13:00:49;8.45;;;5.60;;
34673;SDS011;20879;55.668;37.858;2023-06-26T13:03:31;9.75;;;5.55;;
34673;SDS011;20879;55.668;37.858;2023-06-26T13:06:03;7.30;;;5.45;;
34673;SDS011;20879;55.668;37.858;2023-06-26T13:08:33;7.10;;;4.18;;
34673;SDS011;20879;55.668;37.858;2023-06-26T13:13:45;7.22;;;5.28;;
34673;SDS011;20879;55.668;37.858;2023-06-26T13:16:34;7.53;;;4.93;;
34673;SDS011;20879;55.668;37.858;2023-06-26T13:19:04;6.70;;;4.32;;
34673;SDS011;20879;55.668;37.858;2023-06-26T13:21:39;7.45;;;4.90;;
34673;SDS011;20879;55.668;37.858;2023-06-26T13:24:09;25.67;;;15.00;;
34673;SDS011;20879;55.668;37.858;2023-06-26T13:26:39;11.18;;;7.35;;
34673;SDS011;20879;55.668;37.858;2023-06-26T13:29:15;6.82;;;5.40;;
34673;SDS011;20879;55.668;37.858;2023-06-26T13:31:45;8.40;;;5.43;;
34673;SDS011;20879;55.668;37.858;2023-06-26T13:34:21;7.35;;;5.55;;
34673;SDS011;20879;55.668;37.858;2023-06-26T13:36:56;8.13;;;5.13;;
34673;SDS011;20879;55.668;37.858;2023-06-26T13:39:26;5.53;;;4.43;;
34673;SDS011;20879;55.668;37.858;2023-06-26T13:44:38;5.35;;;4.38;;
34673;SDS011;20879;55.668;37.858;2023-06-26T13:47:32;5.97;;;4.40;;
34673;SDS011;20879;55.668;37.858;2023-06-26T13:50:04;5.63;;;4.50;;
34673;SDS011;20879;55.668;37.858;2023-06-26T13:52:37;6.50;;;5.28;;
34673;SDS011;20879;55.668;37.858;2023-06-26T13:57:35;6.65;;;5.20;;
34673;SDS011;20879;55.668;37.858;2023-06-26T14:00:10;5.78;;;4.78;;
34673;SDS011;20879;55.668;37.858;2023-06-26T14:02:43;11.68;;;5.00;;
34673;SDS011;20879;55.668;37.858;2023-06-26T14:05:12;5.95;;;4.95;;
34673;SDS011;20879;55.668;37.858;2023-06-26T14:10:52;6.93;;;5.00;;
34673;SDS011;20879;55.668;37.858;2023-06-26T14:13:22;8.48;;;5.40;;
34673;SDS011;20879;55.668;37.858;2023-06-26T14:16:04;6.32;;;4.80;;
34673;SDS011;20879;55.668;37.858;2023-06-26T14:18:34;5.80;;;5.00;;
34673;SDS011;20879;55.668;37.858;2023-06-26T14:21:08;9.05;;;6.28;;
34673;SDS011;20879;55.668;37.858;2023-06-26T14:23:45;7.10;;;5.40;;
34673;SDS011;20879;55.668;37.858;2023-06-26T14:26:14;5.18;;;4.68;;
34673;SDS011;20879;55.668;37.858;2023-06-26T14:28:49;6.63;;;4.93;;
34673;SDS011;20879;55.668;37.858;2023-06-26T14:31:18;6.63;;;5.30;;
34673;SDS011;20879;55.668;37.858;2023-06-26T14:33:48;6.50;;;5.47;;
34673;SDS011;20879;55.668;37.858;2023-06-26T14:36:22;8.65;;;4.97;;
34673;SDS011;20879;55.668;37.858;2023-06-26T14:38:55;6.70;;;4.95;;
34673;SDS011;20879;55.668;37.858;2023-06-26T14:41:32;7.90;;;4.93;;
34673;SDS011;20879;55.668;37.858;2023-06-26T14:44:02;9.38;;;5.00;;
34673;SDS011;20879;55.668;37.858;2023-06-26T14:46:35;6.05;;;4.57;;
34673;SDS011;20879;55.668;37.858;2023-06-26T14:49:09;6.70;;;5.18;;
34673;SDS011;20879;55.668;37.858;2023-06-26T14:51:39;6.30;;;4.63;;
34673;SDS011;20879;55.668;37.858;2023-06-26T14:54:10;9.43;;;5.20;;
34673;SDS011;20879;55.668;37.858;2023-06-26T14:56:44;9.75;;;5.70;;
34673;SDS011;20879;55.668;37.858;2023-06-26T14:59:14;11.25;;;5.47;;
34673;SDS011;20879;55.668;37.858;2023-06-26T15:01:43;8.77;;;5.20;;
34673;SDS011;20879;55.668;37.858;2023-06-26T15:04:13;7.03;;;5.10;;
34673;SDS011;20879;55.668;37.858;2023-06-26T15:06:48;6.25;;;4.88;;
34673;SDS011;20879;55.668;37.858;2023-06-26T15:09:19;15.48;;;5.10;;
34673;SDS011;20879;55.668;37.858;2023-06-26T15:11:55;9.25;;;4.13;;
34673;SDS011;20879;55.668;37.858;2023-06-26T15:14:24;13.35;;;4.38;;
34673;SDS011;20879;55.668;37.858;2023-06-26T15:16:54;14.23;;;4.65;;
34673;SDS011;20879;55.668;37.858;2023-06-26T15:22:03;11.20;;;4.85;;
34673;SDS011;20879;55.668;37.858;2023-06-26T15:24:35;7.45;;;4.85;;
34673;SDS011;20879;55.668;37.858;2023-06-26T15:29:35;6.53;;;4.43;;
34673;SDS011;20879;55.668;37.858;2023-06-26T15:32:04;4.65;;;4.00;;
34673;SDS011;20879;55.668;37.858;2023-06-26T15:34:34;7.63;;;4.35;;
34673;SDS011;20879;55.668;37.858;2023-06-26T15:37:04;7.18;;;4.68;;
34673;SDS011;20879;55.668;37.858;2023-06-26T15:39:35;5.45;;;4.00;;
34673;SDS011;20879;55.668;37.858;2023-06-26T15:42:06;6.30;;;3.47;;
34673;SDS011;20879;55.668;37.858;2023-06-26T15:44:36;6.88;;;3.80;;
34673;SDS011;20879;55.668;37.858;2023-06-26T15:47:05;5.40;;;4.03;;
34673;SDS011;20879;55.668;37.858;2023-06-26T15:49:35;4.32;;;3.63;;
34673;SDS011;20879;55.668;37.858;2023-06-26T15:52:05;6.00;;;3.80;;
34673;SDS011;20879;55.668;37.858;2023-06-26T15:54:36;3.50;;;3.20;;
34673;SDS011;20879;55.668;37.858;2023-06-26T15:59:35;7.70;;;4.20;;
34673;SDS011;20879;55.668;37.858;2023-06-26T16:02:04;6.50;;;3.60;;
34673;SDS011;20879;55.668;37.858;2023-06-26T16:04:34;10.05;;;5.18;;
34673;SDS011;20879;55.668;37.858;2023-06-26T16:07:10;7.28;;;4.47;;
34673;SDS011;20879;55.668;37.858;2023-06-26T16:09:55;9.93;;;4.65;;